createdAt,value
2018-06-05T00:02:35.054Z,17.30
2018-06-05T00:05:38.698Z,17.20
2018-06-05T00:08:42.522Z,17.20
2018-06-05T00:11:46.161Z,17.10
2018-06-05T00:14:56.373Z,17.10
2018-06-05T00:18:00.023Z,17.10
2018-06-05T00:21:03.668Z,17.00
2018-06-05T00:24:07.321Z,17.10
2018-06-05T00:27:10.932Z,17.10
2018-06-05T00:30:14.569Z,17.00
2018-06-05T00:33:18.203Z,17.00
2018-06-05T00:36:21.835Z,16.90
2018-06-05T00:39:25.443Z,17.00
2018-06-05T00:42:29.075Z,17.00
2018-06-05T00:45:32.690Z,16.90
2018-06-05T00:48:36.374Z,16.90
2018-06-05T00:51:51.582Z,16.80
2018-06-05T00:54:55.302Z,16.90
2018-06-05T00:57:59.007Z,16.90
2018-06-05T01:01:02.638Z,16.90
2018-06-05T01:04:06.252Z,16.80
2018-06-05T01:10:13.430Z,17.00
2018-06-05T01:13:17.114Z,16.90
2018-06-05T01:16:20.814Z,17.00
2018-06-05T01:19:24.450Z,16.90
2018-06-05T01:22:28.241Z,17.00
2018-06-05T01:25:31.872Z,16.90
2018-06-05T01:31:40.310Z,17.00
2018-06-05T01:34:43.965Z,16.90
2018-06-05T01:37:47.598Z,17.00
2018-06-05T01:40:51.261Z,16.90
2018-06-05T01:43:54.903Z,16.90
2018-06-05T01:46:58.523Z,16.90
2018-06-05T01:53:06.474Z,16.90
2018-06-05T01:56:10.194Z,16.90
2018-06-05T01:59:13.949Z,16.90
2018-06-05T02:02:17.601Z,16.90
2018-06-05T02:05:21.214Z,16.80
2018-06-05T02:08:24.958Z,16.70
2018-06-05T02:11:28.543Z,16.60
2018-06-05T02:14:32.166Z,16.60
2018-06-05T02:17:35.792Z,16.40
2018-06-05T02:20:39.519Z,16.40
2018-06-05T02:23:43.436Z,16.50
2018-06-05T02:26:47.090Z,16.50
2018-06-05T02:29:51.009Z,16.50
2018-06-05T02:32:54.741Z,16.50
2018-06-05T02:35:58.369Z,16.50
2018-06-05T02:39:02.001Z,16.60
2018-06-05T02:45:08.974Z,16.50
2018-06-05T02:48:12.654Z,16.50
2018-06-05T02:51:16.290Z,16.50
2018-06-05T02:54:19.958Z,16.50
2018-06-05T02:57:23.592Z,16.50
2018-06-05T03:00:27.751Z,16.50
2018-06-05T03:03:31.479Z,16.50
2018-06-05T03:06:35.118Z,16.50
2018-06-05T03:09:38.783Z,16.50
2018-06-05T03:12:42.412Z,16.60
2018-06-05T03:15:46.038Z,16.60
2018-06-05T03:21:53.017Z,16.60
2018-06-05T03:24:56.689Z,16.60
2018-06-05T03:28:00.339Z,16.60
2018-06-05T03:34:08.319Z,16.70
2018-06-05T03:37:11.939Z,16.80
2018-06-05T03:40:15.566Z,16.80
2018-06-05T03:46:22.614Z,16.80
2018-06-05T03:49:26.234Z,16.90
2018-06-05T03:52:29.921Z,16.90
2018-06-05T03:55:33.543Z,17.00
2018-06-05T03:58:37.179Z,16.90
2018-06-05T04:04:44.255Z,16.90
2018-06-05T04:07:47.892Z,16.90
2018-06-05T04:10:51.532Z,17.00
2018-06-05T04:13:55.158Z,17.10
2018-06-05T04:16:59.146Z,17.10
2018-06-05T04:20:02.830Z,17.00
2018-06-05T04:23:06.467Z,17.10
2018-06-05T04:26:10.145Z,17.10
2018-06-05T04:29:13.789Z,17.10
2018-06-05T04:32:17.482Z,17.20
2018-06-05T04:35:21.319Z,17.20
2018-06-05T04:41:28.294Z,17.10
2018-06-05T04:44:31.970Z,17.20
2018-06-05T04:47:35.625Z,17.20
2018-06-05T04:53:43.216Z,17.10
2018-06-05T04:56:46.897Z,17.10
2018-06-05T04:59:50.557Z,17.10
2018-06-05T05:02:54.175Z,17.20
2018-06-05T05:05:57.834Z,17.30
2018-06-05T05:09:01.523Z,17.40
2018-06-05T05:12:05.202Z,17.40
2018-06-05T05:15:08.817Z,17.50
2018-06-05T05:18:12.450Z,17.40
2018-06-05T05:24:19.460Z,17.40
2018-06-05T05:30:27.227Z,17.30
2018-06-05T05:33:30.873Z,17.40
2018-06-05T05:36:34.483Z,17.30
2018-06-05T05:39:38.108Z,17.40
2018-06-05T05:42:41.942Z,17.50
2018-06-05T05:45:45.588Z,17.60
2018-06-05T05:48:49.230Z,17.50
2018-06-05T05:51:52.895Z,17.60
2018-06-05T05:57:59.936Z,17.70
2018-06-05T06:01:03.670Z,17.70
2018-06-05T06:04:07.290Z,17.80
2018-06-05T06:10:14.366Z,17.80
2018-06-05T06:13:18.117Z,17.70
2018-06-05T06:16:21.964Z,17.20
2018-06-05T06:19:25.612Z,17.20
2018-06-05T06:22:29.452Z,17.10
2018-06-05T06:25:33.125Z,17.10
2018-06-05T06:28:36.740Z,17.20
2018-06-05T06:31:40.532Z,17.30
2018-06-05T06:37:47.975Z,17.60
2018-06-05T06:40:51.597Z,17.60
2018-06-05T06:43:55.246Z,17.60
2018-06-05T06:50:02.229Z,17.60
2018-06-05T06:53:06.030Z,17.40
2018-06-05T06:56:09.674Z,17.50
2018-06-05T06:59:13.309Z,17.70
2018-06-05T07:02:16.935Z,17.80
2018-06-05T07:05:20.550Z,18.10
2018-06-05T07:08:24.353Z,18.20
2018-06-05T07:11:27.989Z,18.00
2018-06-05T07:17:34.975Z,17.70
2018-06-05T07:23:42.035Z,17.90
2018-06-05T07:26:45.670Z,18.10
2018-06-05T07:32:52.687Z,18.10
2018-06-05T07:35:56.319Z,18.20
2018-06-05T07:38:59.947Z,18.10
2018-06-05T07:42:03.603Z,17.80
2018-06-05T07:45:07.433Z,18.00
2018-06-05T07:48:11.088Z,18.10
2018-06-05T07:51:14.689Z,18.50
2018-06-05T07:54:18.326Z,18.60
2018-06-05T07:57:21.959Z,18.50
2018-06-05T08:00:25.966Z,18.70
2018-06-05T08:03:29.613Z,18.60
2018-06-05T08:09:36.629Z,18.70
2018-06-05T08:12:40.310Z,19.00
2018-06-05T08:15:43.969Z,19.20
2018-06-05T08:18:47.587Z,19.20
2018-06-05T08:21:51.215Z,19.30
2018-06-05T08:24:54.825Z,19.30
2018-06-05T08:27:58.458Z,19.40
2018-06-05T08:31:02.075Z,19.60
2018-06-05T08:34:05.711Z,19.50
2018-06-05T08:37:09.346Z,19.80
2018-06-05T08:40:12.987Z,19.70
2018-06-05T08:43:16.603Z,19.80
2018-06-05T08:46:20.238Z,20.00
2018-06-05T08:49:23.864Z,20.30
2018-06-05T08:52:27.502Z,20.10
2018-06-05T08:55:31.141Z,20.00
2018-06-05T08:58:34.758Z,20.30
2018-06-05T09:01:38.382Z,20.30
2018-06-05T09:04:42.031Z,20.20
2018-06-05T09:07:45.692Z,20.30
2018-06-05T09:10:49.367Z,20.00
2018-06-05T09:13:52.942Z,19.70
2018-06-05T09:20:00.113Z,20.10
2018-06-05T09:23:03.761Z,19.80
2018-06-05T09:29:10.735Z,19.50
2018-06-05T09:32:14.359Z,19.60
2018-06-05T09:35:18.036Z,19.80
2018-06-05T09:38:22.506Z,19.40
2018-06-05T09:41:26.151Z,19.40
2018-06-05T09:44:30.686Z,19.40
2018-06-05T09:47:34.323Z,19.40
2018-06-05T09:50:38.170Z,19.70
2018-06-05T09:53:41.825Z,19.80
2018-06-05T09:56:45.425Z,19.90
2018-06-05T10:02:52.394Z,20.60
2018-06-05T10:05:56.032Z,21.00
2018-06-05T10:08:59.649Z,21.30
2018-06-05T10:12:03.327Z,21.60
2018-06-05T10:18:10.321Z,21.00
2018-06-05T10:24:17.330Z,20.30
2018-06-05T10:27:20.946Z,20.40
2018-06-05T10:30:24.634Z,20.50
2018-06-05T10:33:28.230Z,20.90
2018-06-05T10:36:31.900Z,20.70
2018-06-05T10:39:35.530Z,20.30
2018-06-05T10:42:39.170Z,20.40
2018-06-05T10:45:42.807Z,20.10
2018-06-05T10:48:46.472Z,19.80
2018-06-05T10:51:50.104Z,19.70
2018-06-05T10:54:54.011Z,19.90
2018-06-05T10:57:57.643Z,20.20
2018-06-05T11:01:01.279Z,20.40
2018-06-05T11:04:04.952Z,20.30
2018-06-05T11:07:08.570Z,20.00
2018-06-05T11:13:15.579Z,19.40
2018-06-05T11:16:19.204Z,19.30
2018-06-05T11:19:22.842Z,19.60
2018-06-05T11:22:26.461Z,19.80
2018-06-05T11:25:30.110Z,19.90
2018-06-05T11:28:33.741Z,20.20
2018-06-05T11:31:37.394Z,19.90
2018-06-05T11:34:41.007Z,19.90
2018-06-05T11:37:44.644Z,19.60
2018-06-05T11:40:48.274Z,19.70
2018-06-05T11:43:51.907Z,19.70
2018-06-05T11:46:55.544Z,20.00
2018-06-05T11:49:59.201Z,20.50
2018-06-05T11:56:06.198Z,21.20
2018-06-05T12:02:13.198Z,21.80
2018-06-05T12:05:16.825Z,21.80
2018-06-05T12:08:20.454Z,21.10
2018-06-05T12:11:24.066Z,20.80
2018-06-05T12:14:27.694Z,20.50
2018-06-05T12:20:34.794Z,20.90
2018-06-05T12:26:41.921Z,21.20
2018-06-05T12:29:45.558Z,21.60
2018-06-05T12:32:49.272Z,21.80
2018-06-05T12:35:52.918Z,22.00
2018-06-05T12:45:03.304Z,22.40
2018-06-05T12:51:10.271Z,22.90
2018-06-05T12:54:13.908Z,23.00
2018-06-05T12:57:17.546Z,23.00
2018-06-05T13:00:21.418Z,22.70
2018-06-05T13:03:25.124Z,22.90
2018-06-05T13:06:28.720Z,22.80
2018-06-05T13:09:32.398Z,22.80
2018-06-05T13:12:36.033Z,22.90
2018-06-05T13:21:46.549Z,22.40
2018-06-05T13:24:50.173Z,22.70
2018-06-05T13:27:53.821Z,23.10
2018-06-05T13:34:00.831Z,23.60
2018-06-05T13:37:04.474Z,23.20
2018-06-05T13:40:08.675Z,23.00
2018-06-05T13:43:12.291Z,23.00
2018-06-05T13:46:15.938Z,22.50
2018-06-05T13:49:19.569Z,23.00
2018-06-05T13:52:23.259Z,23.30
2018-06-05T13:55:26.826Z,23.10
2018-06-05T13:58:30.459Z,23.20
2018-06-05T14:04:37.462Z,22.70
2018-06-05T14:07:47.743Z,22.70
2018-06-05T14:10:51.431Z,22.40
2018-06-05T14:16:58.453Z,22.70
2018-06-05T14:20:02.078Z,23.00
2018-06-05T14:23:06.366Z,23.10
2018-06-05T14:26:10.028Z,23.10
2018-06-05T14:29:13.662Z,22.90
2018-06-05T14:32:17.314Z,22.60
2018-06-05T14:35:20.996Z,22.50
2018-06-05T14:38:24.593Z,22.30
2018-06-05T14:41:28.269Z,22.20
2018-06-05T14:44:31.896Z,22.20
2018-06-05T14:47:35.526Z,22.30
2018-06-05T14:50:39.203Z,22.20
2018-06-05T14:53:42.796Z,22.20
2018-06-05T14:56:46.422Z,22.20
2018-06-05T14:59:50.050Z,22.10
2018-06-05T15:02:53.662Z,22.20
2018-06-05T15:05:57.508Z,22.30
2018-06-05T15:09:01.134Z,22.40
2018-06-05T15:12:04.787Z,22.30
2018-06-05T15:18:11.768Z,22.50
2018-06-05T15:21:15.383Z,22.50
2018-06-05T15:27:22.489Z,22.40
2018-06-05T15:30:26.086Z,22.60
2018-06-05T15:36:33.070Z,22.90
2018-06-05T15:39:36.691Z,22.90
2018-06-05T15:45:43.779Z,23.00
2018-06-05T15:51:50.782Z,22.70
2018-06-05T15:54:54.428Z,22.90
2018-06-05T15:57:58.052Z,23.00
2018-06-05T16:01:01.686Z,22.90
2018-06-05T16:04:05.501Z,22.70
2018-06-05T16:07:09.111Z,22.50
2018-06-05T16:10:12.721Z,22.40
2018-06-05T16:13:16.365Z,22.40
2018-06-05T16:16:19.975Z,22.60
2018-06-05T16:19:23.602Z,22.80
2018-06-05T16:22:27.258Z,23.00
2018-06-05T16:25:30.895Z,23.00
2018-06-05T16:28:34.544Z,23.00
2018-06-05T16:31:38.182Z,23.10
2018-06-05T16:34:41.947Z,23.10
2018-06-05T16:37:45.580Z,23.20
2018-06-05T16:40:49.194Z,23.20
2018-06-05T16:43:52.851Z,23.10
2018-06-05T16:46:56.474Z,23.20
2018-06-05T16:50:00.135Z,23.20
2018-06-05T16:56:07.121Z,23.00
2018-06-05T16:59:10.739Z,23.00
2018-06-05T17:02:15.038Z,22.90
2018-06-05T17:05:18.629Z,22.80
2018-06-05T17:08:22.290Z,22.80
2018-06-05T17:11:25.899Z,22.80
2018-06-05T17:14:29.672Z,22.70
2018-06-05T17:17:33.275Z,22.60
2018-06-05T17:23:40.401Z,22.50
2018-06-05T17:26:44.042Z,22.40
2018-06-05T17:29:47.779Z,22.30
2018-06-05T17:32:51.482Z,22.20
2018-06-05T17:35:55.187Z,22.20
2018-06-05T17:38:58.891Z,22.10
2018-06-05T17:42:02.699Z,22.10
2018-06-05T17:45:06.306Z,22.10
2018-06-05T17:48:10.109Z,22.10
2018-06-05T17:54:17.089Z,22.20
2018-06-05T17:57:20.735Z,22.20
2018-06-05T18:00:24.838Z,22.20
2018-06-05T18:03:28.790Z,22.10
2018-06-05T18:06:32.423Z,22.10
2018-06-05T18:12:39.468Z,22.00
2018-06-05T18:15:43.113Z,21.90
2018-06-05T18:18:46.977Z,21.90
2018-06-05T18:21:50.612Z,21.90
2018-06-05T18:24:54.218Z,21.90
2018-06-05T18:27:57.845Z,21.80
2018-06-05T18:31:01.465Z,21.90
2018-06-05T18:34:05.112Z,21.80
2018-06-05T18:37:08.781Z,21.70
2018-06-05T18:40:12.357Z,21.60
2018-06-05T18:43:16.064Z,21.60
2018-06-05T18:46:19.696Z,21.50
2018-06-05T18:49:23.303Z,21.40
2018-06-05T18:52:26.990Z,21.30
2018-06-05T18:55:30.615Z,21.20
2018-06-05T18:58:34.270Z,21.10
